sensor_id;sensor_type;location;lat;lon;timestamp;pressure;altitude;pressure_sealevel;temperature
71807;BMP280;59655;42.590;23.364;2022-11-18T00:00:24;90513.75;;;10.52
71807;BMP280;59655;42.590;23.364;2022-11-18T00:02:50;90507.44;;;10.47
71807;BMP280;59655;42.590;23.364;2022-11-18T00:05:15;90509.38;;;10.37
71807;BMP280;59655;42.590;23.364;2022-11-18T00:07:40;90503.53;;;10.39
71807;BMP280;59655;42.590;23.364;2022-11-18T00:10:06;90509.13;;;10.52
71807;BMP280;59655;42.590;23.364;2022-11-18T00:12:31;90512.75;;;10.57
71807;BMP280;59655;42.590;23.364;2022-11-18T00:15:15;90513.06;;;10.61
71807;BMP280;59655;42.590;23.364;2022-11-18T00:17:41;90517.22;;;10.64
71807;BMP280;59655;42.590;23.364;2022-11-18T00:20:06;90512.78;;;10.67
71807;BMP280;59655;42.590;23.364;2022-11-18T00:22:32;90516.81;;;10.68
71807;BMP280;59655;42.590;23.364;2022-11-18T00:24:57;90514.97;;;10.70
71807;BMP280;59655;42.590;23.364;2022-11-18T00:27:22;90508.88;;;10.68
71807;BMP280;59655;42.590;23.364;2022-11-18T00:29:48;90510.53;;;10.63
71807;BMP280;59655;42.590;23.364;2022-11-18T00:32:13;90509.81;;;10.63
71807;BMP280;59655;42.590;23.364;2022-11-18T00:34:38;90510.97;;;10.60
71807;BMP280;59655;42.590;23.364;2022-11-18T00:37:04;90510.06;;;10.38
71807;BMP280;59655;42.590;23.364;2022-11-18T00:39:29;90504.91;;;10.40
71807;BMP280;59655;42.590;23.364;2022-11-18T00:41:54;90511.91;;;10.45
71807;BMP280;59655;42.590;23.364;2022-11-18T00:44:39;90510.53;;;10.34
71807;BMP280;59655;42.590;23.364;2022-11-18T00:47:04;90504.06;;;10.27
71807;BMP280;59655;42.590;23.364;2022-11-18T00:49:29;90505.75;;;10.32
71807;BMP280;59655;42.590;23.364;2022-11-18T00:51:55;90507.16;;;10.34
71807;BMP280;59655;42.590;23.364;2022-11-18T00:54:20;90501.69;;;10.31
71807;BMP280;59655;42.590;23.364;2022-11-18T00:56:47;90500.19;;;10.38
71807;BMP280;59655;42.590;23.364;2022-11-18T00:59:12;90506.47;;;10.43
71807;BMP280;59655;42.590;23.364;2022-11-18T01:01:38;90503.13;;;10.42
71807;BMP280;59655;42.590;23.364;2022-11-18T01:04:03;90503.28;;;10.44
71807;BMP280;59655;42.590;23.364;2022-11-18T01:06:29;90496.41;;;10.41
71807;BMP280;59655;42.590;23.364;2022-11-18T01:08:54;90494.03;;;10.36
71807;BMP280;59655;42.590;23.364;2022-11-18T01:11:19;90503.66;;;10.41
71807;BMP280;59655;42.590;23.364;2022-11-18T01:14:03;90496.53;;;10.34
71807;BMP280;59655;42.590;23.364;2022-11-18T01:16:29;90491.25;;;10.34
71807;BMP280;59655;42.590;23.364;2022-11-18T01:18:55;90496.97;;;10.40
71807;BMP280;59655;42.590;23.364;2022-11-18T01:21:20;90487.91;;;10.43
71807;BMP280;59655;42.590;23.364;2022-11-18T01:23:46;90494.03;;;10.45
71807;BMP280;59655;42.590;23.364;2022-11-18T01:26:13;90486.66;;;10.44
71807;BMP280;59655;42.590;23.364;2022-11-18T01:28:39;90497.41;;;10.46
71807;BMP280;59655;42.590;23.364;2022-11-18T01:31:23;90482.59;;;10.43
71807;BMP280;59655;42.590;23.364;2022-11-18T01:33:49;90490.56;;;10.43
71807;BMP280;59655;42.590;23.364;2022-11-18T01:36:20;90496.97;;;10.40
71807;BMP280;59655;42.590;23.364;2022-11-18T01:38:46;90489.31;;;10.44
71807;BMP280;59655;42.590;23.364;2022-11-18T01:41:12;90489.19;;;10.42
71807;BMP280;59655;42.590;23.364;2022-11-18T01:43:54;90492.94;;;10.48
71807;BMP280;59655;42.590;23.364;2022-11-18T01:46:22;90492.09;;;10.56
71807;BMP280;59655;42.590;23.364;2022-11-18T01:49:02;90488.88;;;10.57
71807;BMP280;59655;42.590;23.364;2022-11-18T01:51:32;90489.88;;;10.52
71807;BMP280;59655;42.590;23.364;2022-11-18T01:54:07;90487.47;;;10.46
71807;BMP280;59655;42.590;23.364;2022-11-18T01:56:40;90489.59;;;10.48
71807;BMP280;59655;42.590;23.364;2022-11-18T01:59:10;90490.81;;;10.37
71807;BMP280;59655;42.590;23.364;2022-11-18T02:01:37;90490.16;;;10.37
71807;BMP280;59655;42.590;23.364;2022-11-18T02:04:04;90486.66;;;10.34
71807;BMP280;59655;42.590;23.364;2022-11-18T02:06:32;90489.00;;;10.30
71807;BMP280;59655;42.590;23.364;2022-11-18T02:08:58;90488.72;;;10.26
71807;BMP280;59655;42.590;23.364;2022-11-18T02:11:23;90488.28;;;10.29
71807;BMP280;59655;42.590;23.364;2022-11-18T02:14:08;90490.25;;;10.19
71807;BMP280;59655;42.590;23.364;2022-11-18T02:24:40;90495.13;;;10.23
71807;BMP280;59655;42.590;23.364;2022-11-18T02:29:43;90493.47;;;10.18
71807;BMP280;59655;42.590;23.364;2022-11-18T02:37:47;90495.13;;;10.23
71807;BMP280;59655;42.590;23.364;2022-11-18T02:40:34;90501.41;;;10.37
71807;BMP280;59655;42.590;23.364;2022-11-18T02:43:15;90488.88;;;10.47
71807;BMP280;59655;42.590;23.364;2022-11-18T02:45:45;90490.56;;;10.43
71807;BMP280;59655;42.590;23.364;2022-11-18T02:48:13;90491.25;;;10.34
71807;BMP280;59655;42.590;23.364;2022-11-18T02:50:40;90494.75;;;10.36
71807;BMP280;59655;42.590;23.364;2022-11-18T02:53:09;90487.91;;;10.43
71807;BMP280;59655;42.590;23.364;2022-11-18T02:55:37;90490.81;;;10.47
71807;BMP280;59655;42.590;23.364;2022-11-18T02:58:04;90498.66;;;10.45
71807;BMP280;59655;42.590;23.364;2022-11-18T03:00:31;90492.66;;;10.54
71807;BMP280;59655;42.590;23.364;2022-11-18T03:02:56;90498.66;;;10.45
71807;BMP280;59655;42.590;23.364;2022-11-18T03:05:29;90497.97;;;10.44
71807;BMP280;59655;42.590;23.364;2022-11-18T03:08:04;90499.06;;;10.41
71807;BMP280;59655;42.590;23.364;2022-11-18T03:10:34;90497.84;;;10.62
71807;BMP280;59655;42.590;23.364;2022-11-18T03:15:49;90500.34;;;10.50
71807;BMP280;59655;42.590;23.364;2022-11-18T03:20:49;90491.81;;;10.42
71807;BMP280;59655;42.590;23.364;2022-11-18T03:23:26;90494.19;;;10.57
71807;BMP280;59655;42.590;23.364;2022-11-18T03:26:34;90490.44;;;10.60
71807;BMP280;59655;42.590;23.364;2022-11-18T03:29:05;90474.53;;;10.60
71807;BMP280;59655;42.590;23.364;2022-11-18T03:31:38;90479.28;;;10.62
71807;BMP280;59655;42.590;23.364;2022-11-18T03:34:10;90481.50;;;10.65
71807;BMP280;59655;42.590;23.364;2022-11-18T03:36:40;90473.00;;;10.67
71807;BMP280;59655;42.590;23.364;2022-11-18T03:39:10;90479.94;;;10.62
71807;BMP280;59655;42.590;23.364;2022-11-18T03:42:23;90480.63;;;10.63
71807;BMP280;59655;42.590;23.364;2022-11-18T03:44:32;90482.47;;;10.60
71807;BMP280;59655;42.590;23.364;2022-11-18T03:47:03;90470.63;;;10.61
71807;BMP280;59655;42.590;23.364;2022-11-18T03:49:36;90453.84;;;10.59
71807;BMP280;59655;42.590;23.364;2022-11-18T03:52:13;90467.38;;;10.63
71807;BMP280;59655;42.590;23.364;2022-11-18T03:54:40;90477.72;;;10.49
71807;BMP280;59655;42.590;23.364;2022-11-18T03:57:09;90459.88;;;10.59
71807;BMP280;59655;42.590;23.364;2022-11-18T03:59:41;90459.00;;;10.66
71807;BMP280;59655;42.590;23.364;2022-11-18T04:02:12;90461.81;;;10.68
71807;BMP280;59655;42.590;23.364;2022-11-18T04:04:38;90460.97;;;10.66
71807;BMP280;59655;42.590;23.364;2022-11-18T04:09:56;90462.25;;;10.74
71807;BMP280;59655;42.590;23.364;2022-11-18T04:12:25;90466.56;;;10.70
71807;BMP280;59655;42.590;23.364;2022-11-18T04:14:52;90464.59;;;10.70
71807;BMP280;59655;42.590;23.364;2022-11-18T04:17:21;90467.84;;;10.69
71807;BMP280;59655;42.590;23.364;2022-11-18T04:19:48;90465.19;;;10.69
71807;BMP280;59655;42.590;23.364;2022-11-18T04:22:14;90474.38;;;10.68
71807;BMP280;59655;42.590;23.364;2022-11-18T04:24:39;90465.03;;;10.67
71807;BMP280;59655;42.590;23.364;2022-11-18T04:27:05;90468.53;;;10.69
71807;BMP280;59655;42.590;23.364;2022-11-18T04:29:31;90465.03;;;10.77
71807;BMP280;59655;42.590;23.364;2022-11-18T04:31:58;90485.53;;;10.76
71807;BMP280;59655;42.590;23.364;2022-11-18T04:34:24;90481.09;;;10.69
71807;BMP280;59655;42.590;23.364;2022-11-18T04:36:49;90479.69;;;10.68
71807;BMP280;59655;42.590;23.364;2022-11-18T04:39:14;90480.38;;;10.68
71807;BMP280;59655;42.590;23.364;2022-11-18T04:41:42;90478.44;;;10.69
71807;BMP280;59655;42.590;23.364;2022-11-18T04:44:20;90478.44;;;10.69
71807;BMP280;59655;42.590;23.364;2022-11-18T04:46:46;90485.00;;;10.68
71807;BMP280;59655;42.590;23.364;2022-11-18T04:49:13;90484.31;;;10.67
71807;BMP280;59655;42.590;23.364;2022-11-18T04:51:39;90486.94;;;10.67
71807;BMP280;59655;42.590;23.364;2022-11-18T04:54:05;90488.47;;;10.61
71807;BMP280;59655;42.590;23.364;2022-11-18T04:56:30;90498.66;;;10.54
71807;BMP280;59655;42.590;23.364;2022-11-18T04:59:00;90483.88;;;10.61
71807;BMP280;59655;42.590;23.364;2022-11-18T05:01:27;90491.09;;;10.70
71807;BMP280;59655;42.590;23.364;2022-11-18T05:03:52;90486.09;;;10.65
71807;BMP280;59655;42.590;23.364;2022-11-18T05:06:18;90493.78;;;10.61
71807;BMP280;59655;42.590;23.364;2022-11-18T05:08:43;90485.13;;;10.60
71807;BMP280;59655;42.590;23.364;2022-11-18T05:11:09;90472.69;;;10.63
71807;BMP280;59655;42.590;23.364;2022-11-18T05:13:53;90475.94;;;10.61
71807;BMP280;59655;42.590;23.364;2022-11-18T05:16:18;90484.84;;;10.46
71807;BMP280;59655;42.590;23.364;2022-11-18T05:18:45;90487.38;;;10.44
71807;BMP280;59655;42.590;23.364;2022-11-18T05:21:10;90493.91;;;10.53
71807;BMP280;59655;42.590;23.364;2022-11-18T05:23:39;90498.66;;;10.54
71807;BMP280;59655;42.590;23.364;2022-11-18T05:26:08;90492.41;;;10.60
71807;BMP280;59655;42.590;23.364;2022-11-18T05:28:34;90487.50;;;10.66
71807;BMP280;59655;42.590;23.364;2022-11-18T05:31:11;90495.75;;;10.60
71807;BMP280;59655;42.590;23.364;2022-11-18T05:33:37;90500.88;;;10.48
71807;BMP280;59655;42.590;23.364;2022-11-18T05:36:08;90481.94;;;10.62
71807;BMP280;59655;42.590;23.364;2022-11-18T05:38:34;90493.91;;;10.63
71807;BMP280;59655;42.590;23.364;2022-11-18T05:41:00;90477.97;;;10.63
71807;BMP280;59655;42.590;23.364;2022-11-18T05:43:25;90488.06;;;10.64
71807;BMP280;59655;42.590;23.364;2022-11-18T05:45:51;90486.25;;;10.67
71807;BMP280;59655;42.590;23.364;2022-11-18T05:48:17;90484.31;;;10.67
71807;BMP280;59655;42.590;23.364;2022-11-18T05:50:49;90484.00;;;10.63
71807;BMP280;59655;42.590;23.364;2022-11-18T05:53:16;90477.84;;;10.70
71807;BMP280;59655;42.590;23.364;2022-11-18T05:58:16;90475.91;;;10.71
71807;BMP280;59655;42.590;23.364;2022-11-18T06:00:42;90482.59;;;10.82
71807;BMP280;59655;42.590;23.364;2022-11-18T06:03:12;90488.63;;;10.82
71807;BMP280;59655;42.590;23.364;2022-11-18T06:05:40;90494.47;;;10.81
71807;BMP280;59655;42.590;23.364;2022-11-18T06:08:08;90484.16;;;10.85
71807;BMP280;59655;42.590;23.364;2022-11-18T06:10:36;90474.63;;;10.91
71807;BMP280;59655;42.590;23.364;2022-11-18T06:13:05;90479.66;;;10.97
71807;BMP280;59655;42.590;23.364;2022-11-18T06:15:39;90467.94;;;11.00
71807;BMP280;59655;42.590;23.364;2022-11-18T06:20:47;90461.78;;;10.97
71807;BMP280;59655;42.590;23.364;2022-11-18T06:23:14;90466.38;;;10.97
71807;BMP280;59655;42.590;23.364;2022-11-18T06:25:40;90473.66;;;10.96
71807;BMP280;59655;42.590;23.364;2022-11-18T06:28:06;90484.97;;;10.97
71807;BMP280;59655;42.590;23.364;2022-11-18T06:30:33;90469.59;;;10.95
71807;BMP280;59655;42.590;23.364;2022-11-18T06:32:58;90443.91;;;10.98
71807;BMP280;59655;42.590;23.364;2022-11-18T06:35:24;90440.84;;;11.02
71807;BMP280;59655;42.590;23.364;2022-11-18T06:37:49;90453.09;;;11.07
71807;BMP280;59655;42.590;23.364;2022-11-18T06:40:15;90461.63;;;11.05
71807;BMP280;59655;42.590;23.364;2022-11-18T06:42:40;90454.66;;;11.10
71807;BMP280;59655;42.590;23.364;2022-11-18T06:45:24;90439.66;;;11.14
71807;BMP280;59655;42.590;23.364;2022-11-18T06:47:49;90453.75;;;11.27
71807;BMP280;59655;42.590;23.364;2022-11-18T06:50:15;90453.91;;;11.19
71807;BMP280;59655;42.590;23.364;2022-11-18T06:52:41;90451.00;;;11.15
71807;BMP280;59655;42.590;23.364;2022-11-18T06:55:06;90450.44;;;11.16
71807;BMP280;59655;42.590;23.364;2022-11-18T06:57:33;90438.00;;;11.19
71807;BMP280;59655;42.590;23.364;2022-11-18T06:59:58;90454.06;;;11.21
71807;BMP280;59655;42.590;23.364;2022-11-18T07:02:24;90472.06;;;11.23
71807;BMP280;59655;42.590;23.364;2022-11-18T07:04:49;90476.13;;;11.24
71807;BMP280;59655;42.590;23.364;2022-11-18T07:07:14;90481.72;;;11.18
71807;BMP280;59655;42.590;23.364;2022-11-18T07:09:40;90482.69;;;11.13
71807;BMP280;59655;42.590;23.364;2022-11-18T07:12:05;90490.00;;;10.93
71807;BMP280;59655;42.590;23.364;2022-11-18T07:14:31;90477.13;;;11.09
71807;BMP280;59655;42.590;23.364;2022-11-18T07:16:56;90475.34;;;11.02
71807;BMP280;59655;42.590;23.364;2022-11-18T07:19:22;90446.31;;;10.94
71807;BMP280;59655;42.590;23.364;2022-11-18T07:21:47;90453.81;;;11.07
71807;BMP280;59655;42.590;23.364;2022-11-18T07:24:13;90439.44;;;11.01
71807;BMP280;59655;42.590;23.364;2022-11-18T07:26:40;90436.78;;;11.01
71807;BMP280;59655;42.590;23.364;2022-11-18T07:29:05;90431.34;;;10.99
71807;BMP280;59655;42.590;23.364;2022-11-18T07:31:31;90443.03;;;11.05
71807;BMP280;59655;42.590;23.364;2022-11-18T07:33:58;90444.16;;;11.12
71807;BMP280;59655;42.590;23.364;2022-11-18T07:36:25;90441.38;;;11.10
71807;BMP280;59655;42.590;23.364;2022-11-18T07:38:52;90438.75;;;11.00
71807;BMP280;59655;42.590;23.364;2022-11-18T07:41:22;90434.13;;;11.01
71807;BMP280;59655;42.590;23.364;2022-11-18T07:43:49;90456.06;;;11.01
71807;BMP280;59655;42.590;23.364;2022-11-18T07:48:46;90434.94;;;11.03
71807;BMP280;59655;42.590;23.364;2022-11-18T07:51:13;90421.81;;;11.05
71807;BMP280;59655;42.590;23.364;2022-11-18T07:53:39;90403.22;;;11.05
71807;BMP280;59655;42.590;23.364;2022-11-18T07:56:05;90409.25;;;11.06
71807;BMP280;59655;42.590;23.364;2022-11-18T07:58:33;90423.06;;;11.04
71807;BMP280;59655;42.590;23.364;2022-11-18T08:01:06;90443.66;;;10.94
71807;BMP280;59655;42.590;23.364;2022-11-18T08:03:32;90438.06;;;11.00
71807;BMP280;59655;42.590;23.364;2022-11-18T08:05:58;90431.78;;;10.95
71807;BMP280;59655;42.590;23.364;2022-11-18T08:08:24;90431.91;;;10.87
71807;BMP280;59655;42.590;23.364;2022-11-18T08:10:49;90437.09;;;10.85
71807;BMP280;59655;42.590;23.364;2022-11-18T08:13:14;90456.22;;;10.84
71807;BMP280;59655;42.590;23.364;2022-11-18T08:15:41;90495.88;;;10.91
71807;BMP280;59655;42.590;23.364;2022-11-18T08:18:06;90485.69;;;10.78
71807;BMP280;59655;42.590;23.364;2022-11-18T08:20:33;90480.66;;;10.82
71807;BMP280;59655;42.590;23.364;2022-11-18T08:22:59;90465.00;;;10.96
71807;BMP280;59655;42.590;23.364;2022-11-18T08:25:24;90453.09;;;11.07
71807;BMP280;59655;42.590;23.364;2022-11-18T08:27:49;90445.13;;;11.16
71807;BMP280;59655;42.590;23.364;2022-11-18T08:30:15;90447.09;;;11.06
71807;BMP280;59655;42.590;23.364;2022-11-18T08:32:40;90443.75;;;11.06
71807;BMP280;59655;42.590;23.364;2022-11-18T08:35:06;90459.28;;;11.09
71807;BMP280;59655;42.590;23.364;2022-11-18T08:37:32;90456.47;;;11.17
71807;BMP280;59655;42.590;23.364;2022-11-18T08:39:58;90447.09;;;11.16
71807;BMP280;59655;42.590;23.364;2022-11-18T08:42:23;90439.38;;;11.20
71807;BMP280;59655;42.590;23.364;2022-11-18T08:44:49;90436.03;;;11.19
71807;BMP280;59655;42.590;23.364;2022-11-18T08:47:15;90433.38;;;11.19
71807;BMP280;59655;42.590;23.364;2022-11-18T08:49:40;90417.19;;;11.15
71807;BMP280;59655;42.590;23.364;2022-11-18T08:52:07;90405.16;;;11.14
71807;BMP280;59655;42.590;23.364;2022-11-18T08:54:33;90396.25;;;11.10
71807;BMP280;59655;42.590;23.364;2022-11-18T08:56:59;90382.69;;;11.15
71807;BMP280;59655;42.590;23.364;2022-11-18T08:59:24;90375.81;;;11.12
71807;BMP280;59655;42.590;23.364;2022-11-18T09:01:50;90386.44;;;11.12
71807;BMP280;59655;42.590;23.364;2022-11-18T09:04:15;90367.91;;;11.03
71807;BMP280;59655;42.590;23.364;2022-11-18T09:06:41;90358.97;;;11.08
71807;BMP280;59655;42.590;23.364;2022-11-18T09:09:06;90363.84;;;11.11
71807;BMP280;59655;42.590;23.364;2022-11-18T09:11:36;90371.38;;;11.15
71807;BMP280;59655;42.590;23.364;2022-11-18T09:14:02;90353.38;;;11.04
71807;BMP280;59655;42.590;23.364;2022-11-18T09:16:29;90345.78;;;11.19
71807;BMP280;59655;42.590;23.364;2022-11-18T09:18:56;90349.53;;;11.26
71807;BMP280;59655;42.590;23.364;2022-11-18T09:21:21;90359.97;;;11.34
71807;BMP280;59655;42.590;23.364;2022-11-18T09:23:47;90354.22;;;11.37
71807;BMP280;59655;42.590;23.364;2022-11-18T09:26:14;90361.50;;;11.37
71807;BMP280;59655;42.590;23.364;2022-11-18T09:28:40;90355.31;;;11.44
71807;BMP280;59655;42.590;23.364;2022-11-18T09:31:08;90341.03;;;11.49
71807;BMP280;59655;42.590;23.364;2022-11-18T09:33:35;90351.38;;;11.45
71807;BMP280;59655;42.590;23.364;2022-11-18T09:36:00;90362.13;;;11.47
71807;BMP280;59655;42.590;23.364;2022-11-18T09:38:30;90350.13;;;11.46
71807;BMP280;59655;42.590;23.364;2022-11-18T09:46:47;90328.84;;;11.56
71807;BMP280;59655;42.590;23.364;2022-11-18T09:49:29;90314.91;;;11.67
71807;BMP280;59655;42.590;23.364;2022-11-18T09:51:56;90303.56;;;11.67
71807;BMP280;59655;42.590;23.364;2022-11-18T09:54:30;90326.78;;;11.66
71807;BMP280;59655;42.590;23.364;2022-11-18T09:56:56;90324.03;;;11.64
71807;BMP280;59655;42.590;23.364;2022-11-18T09:59:23;90296.63;;;11.61
71807;BMP280;59655;42.590;23.364;2022-11-18T10:01:51;90313.50;;;11.66
71807;BMP280;59655;42.590;23.364;2022-11-18T10:04:19;90304.53;;;11.71
71807;BMP280;59655;42.590;23.364;2022-11-18T10:06:46;90313.63;;;11.68
71807;BMP280;59655;42.590;23.364;2022-11-18T10:12:25;90320.03;;;12.41
71807;BMP280;59655;42.590;23.364;2022-11-18T10:20:11;90340.28;;;12.46
71807;BMP280;59655;42.590;23.364;2022-11-18T10:22:53;90343.63;;;12.47
71807;BMP280;59655;42.590;23.364;2022-11-18T10:25:19;90311.16;;;12.48
71807;BMP280;59655;42.590;23.364;2022-11-18T10:27:47;90294.84;;;12.54
71807;BMP280;59655;42.590;23.364;2022-11-18T10:30:21;90288.53;;;12.83
71807;BMP280;59655;42.590;23.364;2022-11-18T10:33:26;90277.66;;;12.79
71807;BMP280;59655;42.590;23.364;2022-11-18T10:36:24;90279.25;;;12.95
71807;BMP280;59655;42.590;23.364;2022-11-18T10:41:37;90277.50;;;13.12
71807;BMP280;59655;42.590;23.364;2022-11-18T10:44:03;90275.50;;;13.24
71807;BMP280;59655;42.590;23.364;2022-11-18T10:46:34;90267.44;;;13.59
71807;BMP280;59655;42.590;23.364;2022-11-18T10:51:36;90259.94;;;13.56
71807;BMP280;59655;42.590;23.364;2022-11-18T10:54:13;90272.53;;;13.93
71807;BMP280;59655;42.590;23.364;2022-11-18T10:57:06;90266.13;;;13.72
71807;BMP280;59655;42.590;23.364;2022-11-18T10:59:47;90263.34;;;13.70
71807;BMP280;59655;42.590;23.364;2022-11-18T11:04:48;90249.44;;;13.72
71807;BMP280;59655;42.590;23.364;2022-11-18T11:09:40;90252.63;;;13.82
71807;BMP280;59655;42.590;23.364;2022-11-18T11:12:16;90242.56;;;14.06
71807;BMP280;59655;42.590;23.364;2022-11-18T11:14:53;90265.16;;;14.05
71807;BMP280;59655;42.590;23.364;2022-11-18T11:17:29;90262.97;;;14.27
71807;BMP280;59655;42.590;23.364;2022-11-18T11:22:35;90247.78;;;14.57
71807;BMP280;59655;42.590;23.364;2022-11-18T11:25:01;90261.25;;;14.59
71807;BMP280;59655;42.590;23.364;2022-11-18T11:27:38;90253.81;;;14.58
71807;BMP280;59655;42.590;23.364;2022-11-18T11:30:15;90265.22;;;14.58
71807;BMP280;59655;42.590;23.364;2022-11-18T11:40:38;90228.63;;;14.47
71807;BMP280;59655;42.590;23.364;2022-11-18T11:43:22;90230.97;;;14.55
71807;BMP280;59655;42.590;23.364;2022-11-18T11:50:53;90224.34;;;14.42
71807;BMP280;59655;42.590;23.364;2022-11-18T12:04:34;90227.72;;;14.03
71807;BMP280;59655;42.590;23.364;2022-11-18T12:07:02;90241.16;;;14.05
71807;BMP280;59655;42.590;23.364;2022-11-18T12:12:05;90231.56;;;14.00
71807;BMP280;59655;42.590;23.364;2022-11-18T12:14:56;90238.88;;;13.99
71807;BMP280;59655;42.590;23.364;2022-11-18T12:17:33;90220.75;;;14.10
71807;BMP280;59655;42.590;23.364;2022-11-18T12:23:10;90239.72;;;14.16
71807;BMP280;59655;42.590;23.364;2022-11-18T12:25:50;90234.47;;;14.18
71807;BMP280;59655;42.590;23.364;2022-11-18T12:30:47;90189.53;;;14.12
71807;BMP280;59655;42.590;23.364;2022-11-18T12:33:14;90181.59;;;14.00
71807;BMP280;59655;42.590;23.364;2022-11-18T12:35:46;90196.88;;;14.00
71807;BMP280;59655;42.590;23.364;2022-11-18T12:38:30;90203.34;;;14.09
71807;BMP280;59655;42.590;23.364;2022-11-18T12:40:55;90212.81;;;13.98
71807;BMP280;59655;42.590;23.364;2022-11-18T12:57:12;90180.13;;;14.11
71807;BMP280;59655;42.590;23.364;2022-11-18T12:59:39;90168.41;;;14.16
71807;BMP280;59655;42.590;23.364;2022-11-18T13:04:36;90146.03;;;13.96
71807;BMP280;59655;42.590;23.364;2022-11-18T13:07:04;90144.47;;;14.18
71807;BMP280;59655;42.590;23.364;2022-11-18T13:09:51;90176.28;;;14.00
71807;BMP280;59655;42.590;23.364;2022-11-18T13:12:17;90182.28;;;14.01
71807;BMP280;59655;42.590;23.364;2022-11-18T13:14:43;90158.97;;;14.01
71807;BMP280;59655;42.590;23.364;2022-11-18T13:17:32;90148.88;;;14.00
71807;BMP280;59655;42.590;23.364;2022-11-18T13:20:30;90149.50;;;13.98
71807;BMP280;59655;42.590;23.364;2022-11-18T13:26:01;90125.16;;;13.92
71807;BMP280;59655;42.590;23.364;2022-11-18T13:31:12;90096.66;;;13.95
71807;BMP280;59655;42.590;23.364;2022-11-18T13:33:40;90105.34;;;13.95
71807;BMP280;59655;42.590;23.364;2022-11-18T13:36:19;90102.47;;;14.05
71807;BMP280;59655;42.590;23.364;2022-11-18T13:38:58;90085.31;;;13.94
71807;BMP280;59655;42.590;23.364;2022-11-18T13:41:25;90070.97;;;14.01
71807;BMP280;59655;42.590;23.364;2022-11-18T13:44:36;90086.19;;;13.99
71807;BMP280;59655;42.590;23.364;2022-11-18T13:49:50;90100.19;;;13.99
71807;BMP280;59655;42.590;23.364;2022-11-18T13:52:23;90112.97;;;14.01
71807;BMP280;59655;42.590;23.364;2022-11-18T13:54:51;90114.53;;;14.06
71807;BMP280;59655;42.590;23.364;2022-11-18T13:57:22;90114.34;;;14.02
71807;BMP280;59655;42.590;23.364;2022-11-18T13:59:48;90097.53;;;13.99
71807;BMP280;59655;42.590;23.364;2022-11-18T14:02:15;90099.63;;;14.01
71807;BMP280;59655;42.590;23.364;2022-11-18T14:04:59;90084.69;;;13.96
71807;BMP280;59655;42.590;23.364;2022-11-18T14:10:14;90104.56;;;14.06
71807;BMP280;59655;42.590;23.364;2022-11-18T14:12:39;90095.88;;;14.06
71807;BMP280;59655;42.590;23.364;2022-11-18T14:15:13;90119.78;;;14.04
71807;BMP280;59655;42.590;23.364;2022-11-18T14:17:49;90110.88;;;13.99
71807;BMP280;59655;42.590;23.364;2022-11-18T14:20:16;90110.41;;;14.03
71807;BMP280;59655;42.590;23.364;2022-11-18T14:22:42;90102.97;;;14.01
71807;BMP280;59655;42.590;23.364;2022-11-18T14:25:37;90092.88;;;14.00
71807;BMP280;59655;42.590;23.364;2022-11-18T14:30:56;90078.00;;;13.95
71807;BMP280;59655;42.590;23.364;2022-11-18T14:33:28;90090.50;;;13.92
71807;BMP280;59655;42.590;23.364;2022-11-18T14:41:01;90120.97;;;14.01
71807;BMP280;59655;42.590;23.364;2022-11-18T14:43:28;90129.16;;;13.91
71807;BMP280;59655;42.590;23.364;2022-11-18T14:45:57;90143.16;;;13.92
71807;BMP280;59655;42.590;23.364;2022-11-18T14:48:24;90151.56;;;14.00
71807;BMP280;59655;42.590;23.364;2022-11-18T14:50:50;90142.00;;;13.95
71807;BMP280;59655;42.590;23.364;2022-11-18T14:53:19;90149.88;;;13.93
71807;BMP280;59655;42.590;23.364;2022-11-18T14:55:48;90138.19;;;13.86
71807;BMP280;59655;42.590;23.364;2022-11-18T14:58:13;90134.53;;;13.66
71807;BMP280;59655;42.590;23.364;2022-11-18T15:00:45;90136.91;;;13.48
71807;BMP280;59655;42.590;23.364;2022-11-18T15:03:11;90143.50;;;13.33
71807;BMP280;59655;42.590;23.364;2022-11-18T15:05:36;90120.03;;;13.18
71807;BMP280;59655;42.590;23.364;2022-11-18T15:08:02;90111.13;;;13.13
71807;BMP280;59655;42.590;23.364;2022-11-18T15:10:28;90119.72;;;13.11
71807;BMP280;59655;42.590;23.364;2022-11-18T15:12:53;90139.50;;;13.08
71807;BMP280;59655;42.590;23.364;2022-11-18T15:15:19;90132.13;;;13.07
71807;BMP280;59655;42.590;23.364;2022-11-18T15:17:45;90102.19;;;13.20
71807;BMP280;59655;42.590;23.364;2022-11-18T15:20:16;90096.31;;;13.10
71807;BMP280;59655;42.590;23.364;2022-11-18T15:22:41;90085.22;;;13.02
71807;BMP280;59655;42.590;23.364;2022-11-18T15:25:08;90075.09;;;12.98
71807;BMP280;59655;42.590;23.364;2022-11-18T15:27:34;90074.97;;;12.96
71807;BMP280;59655;42.590;23.364;2022-11-18T15:30:00;90100.16;;;13.07
71807;BMP280;59655;42.590;23.364;2022-11-18T15:32:25;90085.38;;;13.04
71807;BMP280;59655;42.590;23.364;2022-11-18T15:34:51;90091.13;;;13.12
71807;BMP280;59655;42.590;23.364;2022-11-18T15:37:16;90081.03;;;13.10
71807;BMP280;59655;42.590;23.364;2022-11-18T15:39:41;90074.06;;;13.17
71807;BMP280;59655;42.590;23.364;2022-11-18T15:42:08;90073.00;;;13.22
71807;BMP280;59655;42.590;23.364;2022-11-18T15:44:33;90067.47;;;13.18
71807;BMP280;59655;42.590;23.364;2022-11-18T15:46:59;90079.25;;;13.15
71807;BMP280;59655;42.590;23.364;2022-11-18T15:49:25;90078.00;;;13.16
71807;BMP280;59655;42.590;23.364;2022-11-18T15:51:51;90090.03;;;13.17
71807;BMP280;59655;42.590;23.364;2022-11-18T15:54:16;90092.31;;;13.23
71807;BMP280;59655;42.590;23.364;2022-11-18T15:56:42;90092.53;;;13.27
71807;BMP280;59655;42.590;23.364;2022-11-18T15:59:14;90086.53;;;13.26
71807;BMP280;59655;42.590;23.364;2022-11-18T16:01:47;90072.16;;;13.31
71807;BMP280;59655;42.590;23.364;2022-11-18T16:04:17;90062.25;;;13.34
71807;BMP280;59655;42.590;23.364;2022-11-18T16:06:43;90056.78;;;13.44
71807;BMP280;59655;42.590;23.364;2022-11-18T16:09:09;90053.44;;;13.43
71807;BMP280;59655;42.590;23.364;2022-11-18T16:11:35;90046.84;;;13.44
71807;BMP280;59655;42.590;23.364;2022-11-18T16:14:20;90059.44;;;13.44